Monte Aconcagua — DGOH2 — position and weather

sailwx.info

Track history (hours):
 
Tides and Currents Weather Stations Pressure Air Temp Water Temp Dewpoint Dewpoint Depression Visibility Wind Speed Wind Dir Waves Ship Positions

Monte Aconcagua

Last reported at 2017-Dec-11 02:42 UTC. Time now 2017-Dec-12 21:59 UTC.
Position S 23°49' W 044°41'.

Length 272 m; draft 11.8 m.

Type: Ship (hazmat cat A). MMSI: 218764000.

Date/timePositionNaut miles runAvg speedWind from/ knotsBaromVisibWave heightAir tempDewpointWater temp
2017-Dec-11 02:42S 23°49' W 044°41'920.5
2017-Dec-11 02:15S 23°53' W 044°50'820.7
2017-Dec-11 01:53S 23°57' W 044°57'2020.8
2017-Dec-11 00:54S 24°06' W 045°17'820.5
2017-Dec-11 00:31S 24°10' W 045°24'1820.1
2017-Dec-10 23:36S 24°15' W 045°43'620.6
2017-Dec-10 23:18S 24°16' W 045°50'820.6
2017-Dec-10 22:55S 24°16' W 045°59'820.6
2017-Dec-10 22:31S 24°15' W 046°08'1019.9
2017-Dec-10 22:01S 24°13' W 046°19'816.5
2017-Dec-10 21:31S 24°05' W 046°22'612.0
2017-Dec-10 21:00S 23°60' W 046°20'3 5.2
2017-Dec-10 20:30S 23°58' W 046°18'0 0.4
2017-Dec-10 19:59S 23°58' W 046°18'0 0.0
2017-Dec-10 19:29S 23°58' W 046°18'0 0.0
2017-Dec-10 18:59S 23°58' W 046°18'0 0.0
2017-Dec-10 18:29S 23°58' W 046°18'0 0.0
2017-Dec-10 17:56S 23°58' W 046°18'0 0.0
2017-Dec-10 17:29S 23°58' W 046°18'0 0.0
2017-Dec-10 16:59S 23°58' W 046°18'0 0.0
2017-Dec-10 16:23S 23°58' W 046°18'0 0.0
2017-Dec-10 15:59S 23°58' W 046°18'0 0.0
2017-Dec-10 15:29S 23°58' W 046°18'0 0.0
2017-Dec-10 14:59S 23°58' W 046°18'0 0.0
2017-Dec-10 14:29S 23°58' W 046°18'0 0.0
2017-Dec-10 13:59S 23°58' W 046°18'0 0.0
2017-Dec-10 13:29S 23°58' W 046°18'0 0.0
2017-Dec-10 12:59S 23°58' W 046°18'0 0.0
2017-Dec-10 12:29S 23°58' W 046°18'0 0.0
2017-Dec-10 11:59S 23°58' W 046°18'0 0.0
2017-Dec-10 11:23S 23°58' W 046°18'0 0.0
2017-Dec-10 10:59S 23°58' W 046°18'0 0.0
2017-Dec-10 10:17S 23°58' W 046°18'0 0.0
2017-Dec-10 09:59S 23°58' W 046°18'0 0.0
2017-Dec-10 09:29S 23°58' W 046°18'0 0.0
2017-Dec-10 08:59S 23°58' W 046°18'0 0.0
2017-Dec-10 08:26S 23°58' W 046°18'0 0.0
2017-Dec-10 07:53S 23°58' W 046°18'0 0.0
2017-Dec-10 07:26S 23°58' W 046°18'0 0.0
2017-Dec-10 06:56S 23°58' W 046°18'0 0.0
2017-Dec-10 06:23S 23°58' W 046°18'0 0.0
2017-Dec-10 05:56S 23°58' W 046°18'0 0.0
2017-Dec-10 05:29S 23°58' W 046°18'0 0.0
2017-Dec-10 04:59S 23°58' W 046°18'0 0.0
2017-Dec-10 04:29S 23°58' W 046°18'0 0.0
2017-Dec-10 03:59S 23°58' W 046°18'0 0.0
2017-Dec-10 03:29S 23°58' W 046°18'0 0.0
2017-Dec-10 02:56S 23°58' W 046°18'0 0.0
2017-Dec-10 02:23S 23°58' W 046°18'0 0.0
2017-Dec-10 01:59S 23°58' W 046°18'0 0.0
2017-Dec-10 01:29S 23°58' W 046°18'0 0.0
2017-Dec-10 00:59S 23°58' W 046°18'0 0.0
2017-Dec-10 00:29S 23°58' W 046°18'0 0.0
2017-Dec-09 23:59S 23°58' W 046°18'0 0.0
2017-Dec-09 23:26S 23°58' W 046°18'0 0.0
2017-Dec-09 22:59S 23°58' W 046°18'0 0.0
2017-Dec-09 22:29S 23°58' W 046°18'0 0.0
2017-Dec-09 21:59S 23°58' W 046°18'0 0.0
2017-Dec-09 21:29S 23°58' W 046°18'0 0.0
2017-Dec-09 20:56S 23°58' W 046°18'0 0.0
2017-Dec-09 20:29S 23°58' W 046°18'0 0.0
2017-Dec-09 19:59S 23°58' W 046°18'0 0.0
2017-Dec-09 19:29S 23°58' W 046°18'0 0.0
2017-Dec-09 18:59S 23°58' W 046°18'0 0.0
2017-Dec-09 18:29S 23°58' W 046°18'0 0.0
2017-Dec-09 17:59S 23°58' W 046°18'0 0.0
2017-Dec-09 17:29S 23°58' W 046°18'0 0.0
2017-Dec-09 16:47S 23°58' W 046°18'0 0.0
2017-Dec-09 16:29S 23°58' W 046°18'0 1.0
2017-Dec-09 16:00S 23°58' W 046°18'3 6.4
2017-Dec-09 15:30S 24°00' W 046°20'4 7.7
2017-Dec-09 15:00S 24°04' W 046°22'4 8.7
2017-Dec-09 14:30S 24°08' W 046°21'3 6.6
2017-Dec-09 14:00S 24°11' W 046°19'0 0.5
2017-Dec-09 13:29S 24°10' W 046°19'0 0.0
2017-Dec-09 12:56S 24°10' W 046°19'0 0.0
2017-Dec-09 12:26S 24°10' W 046°19'0 0.0
2017-Dec-09 11:56S 24°10' W 046°19'0 0.0
2017-Dec-09 11:29S 24°10' W 046°19'0 0.0
2017-Dec-09 10:47S 24°10' W 046°19'0 0.0
2017-Dec-09 10:26S 24°10' W 046°19'0 0.0
2017-Dec-09 09:56S 24°10' W 046°19'0 0.0
2017-Dec-09 09:26S 24°10' W 046°19'0 0.0
2017-Dec-09 08:56S 24°10' W 046°19'0 0.0
2017-Dec-09 08:29S 24°10' W 046°19'0 0.0
2017-Dec-09 07:53S 24°10' W 046°19'0 0.0
2017-Dec-09 07:26S 24°10' W 046°19'0 0.0
2017-Dec-09 06:53S 24°10' W 046°19'0 0.0
2017-Dec-09 06:29S 24°10' W 046°19'0 0.0
2017-Dec-09 05:56S 24°10' W 046°19'0 0.0
2017-Dec-09 05:29S 24°10' W 046°19'0 0.0
2017-Dec-09 04:59S 24°10' W 046°19'0 0.0
2017-Dec-09 04:26S 24°10' W 046°19'0 0.0
2017-Dec-09 03:59S 24°10' W 046°19'0 0.0
2017-Dec-09 03:26S 24°10' W 046°19'0 0.0
2017-Dec-09 02:56S 24°10' W 046°19'0 0.0
2017-Dec-09 02:20S 24°10' W 046°19'0 0.0
2017-Dec-09 01:59S 24°10' W 046°19'0 0.0
2017-Dec-09 01:29S 24°10' W 046°19'0 0.0
2017-Dec-09 00:56S 24°10' W 046°19'0 0.0
2017-Dec-09 00:29S 24°10' W 046°19'0 0.0
2017-Dec-08 23:56S 24°10' W 046°19'0 0.0
2017-Dec-08 23:26S 24°10' W 046°19'0 0.0
2017-Dec-08 22:56S 24°10' W 046°19'0 0.0
2017-Dec-08 22:26S 24°10' W 046°19'0 0.1
2017-Dec-08 21:56S 24°10' W 046°19'0 0.0
2017-Dec-08 21:23S 24°10' W 046°19'0 0.1
2017-Dec-08 20:38S 24°10' W 046°19'0 0.1
2017-Dec-08 20:29S 24°10' W 046°19'0 0.1
2017-Dec-08 19:58S 24°10' W 046°19'3 5.8
2017-Dec-08 19:30S 24°12' W 046°21'714.6
2017-Dec-08 19:00S 24°19' W 046°24'815.6
2017-Dec-08 18:30S 24°25' W 046°29'815.6
2017-Dec-08 18:00S 24°31' W 046°34'815.6
2017-Dec-08 17:30S 24°37' W 046°39'815.8
2017-Dec-08 17:00S 24°43' W 046°45'915.8
2017-Dec-08 16:28S 24°49' W 046°52'1315.6
2017-Dec-08 15:37S 24°58' W 047°03'215.6
2017-Dec-08 15:30S 24°59' W 047°04'  
Track history (hours):
 
Tides and Currents Weather Stations Pressure Air Temp Water Temp Dewpoint Dewpoint Depression Visibility Wind Speed Wind Dir Waves Ship Positions

Monte Aconcagua

Last reported at 2017-Dec-11 02:42 UTC. Time now 2017-Dec-12 21:59 UTC.
Position S 23°49' W 044°41'.

Length 272 m; draft 11.8 m.

Type: Ship (hazmat cat A). MMSI: 218764000.

Date/timePositionNaut miles runAvg speedWind from/ knotsBaromVisibWave heightAir tempDewpointWater temp
2017-Dec-11 02:42S 23°49' W 044°41'920.5
2017-Dec-11 02:15S 23°53' W 044°50'820.7
2017-Dec-11 01:53S 23°57' W 044°57'2020.8
2017-Dec-11 00:54S 24°06' W 045°17'820.5
2017-Dec-11 00:31S 24°10' W 045°24'1820.1
2017-Dec-10 23:36S 24°15' W 045°43'620.6
2017-Dec-10 23:18S 24°16' W 045°50'820.6
2017-Dec-10 22:55S 24°16' W 045°59'820.6
2017-Dec-10 22:31S 24°15' W 046°08'1019.9
2017-Dec-10 22:01S 24°13' W 046°19'816.5
2017-Dec-10 21:31S 24°05' W 046°22'612.0
2017-Dec-10 21:00S 23°60' W 046°20'3 5.2
2017-Dec-10 20:30S 23°58' W 046°18'0 0.4
2017-Dec-10 19:59S 23°58' W 046°18'0 0.0
2017-Dec-10 19:29S 23°58' W 046°18'0 0.0
2017-Dec-10 18:59S 23°58' W 046°18'0 0.0
2017-Dec-10 18:29S 23°58' W 046°18'0 0.0
2017-Dec-10 17:56S 23°58' W 046°18'0 0.0
2017-Dec-10 17:29S 23°58' W 046°18'0 0.0
2017-Dec-10 16:59S 23°58' W 046°18'0 0.0
2017-Dec-10 16:23S 23°58' W 046°18'0 0.0
2017-Dec-10 15:59S 23°58' W 046°18'0 0.0
2017-Dec-10 15:29S 23°58' W 046°18'0 0.0
2017-Dec-10 14:59S 23°58' W 046°18'0 0.0
2017-Dec-10 14:29S 23°58' W 046°18'0 0.0
2017-Dec-10 13:59S 23°58' W 046°18'0 0.0
2017-Dec-10 13:29S 23°58' W 046°18'0 0.0
2017-Dec-10 12:59S 23°58' W 046°18'0 0.0
2017-Dec-10 12:29S 23°58' W 046°18'0 0.0
2017-Dec-10 11:59S 23°58' W 046°18'0 0.0
2017-Dec-10 11:23S 23°58' W 046°18'0 0.0
2017-Dec-10 10:59S 23°58' W 046°18'0 0.0
2017-Dec-10 10:17S 23°58' W 046°18'0 0.0
2017-Dec-10 09:59S 23°58' W 046°18'0 0.0
2017-Dec-10 09:29S 23°58' W 046°18'0 0.0
2017-Dec-10 08:59S 23°58' W 046°18'0 0.0
2017-Dec-10 08:26S 23°58' W 046°18'0 0.0
2017-Dec-10 07:53S 23°58' W 046°18'0 0.0
2017-Dec-10 07:26S 23°58' W 046°18'0 0.0
2017-Dec-10 06:56S 23°58' W 046°18'0 0.0
2017-Dec-10 06:23S 23°58' W 046°18'0 0.0
2017-Dec-10 05:56S 23°58' W 046°18'0 0.0
2017-Dec-10 05:29S 23°58' W 046°18'0 0.0
2017-Dec-10 04:59S 23°58' W 046°18'0 0.0
2017-Dec-10 04:29S 23°58' W 046°18'0 0.0
2017-Dec-10 03:59S 23°58' W 046°18'0 0.0
2017-Dec-10 03:29S 23°58' W 046°18'0 0.0
2017-Dec-10 02:56S 23°58' W 046°18'0 0.0
2017-Dec-10 02:23S 23°58' W 046°18'0 0.0
2017-Dec-10 01:59S 23°58' W 046°18'0 0.0
2017-Dec-10 01:29S 23°58' W 046°18'0 0.0
2017-Dec-10 00:59S 23°58' W 046°18'0 0.0
2017-Dec-10 00:29S 23°58' W 046°18'0 0.0
2017-Dec-09 23:59S 23°58' W 046°18'0 0.0
2017-Dec-09 23:26S 23°58' W 046°18'0 0.0
2017-Dec-09 22:59S 23°58' W 046°18'0 0.0
2017-Dec-09 22:29S 23°58' W 046°18'0 0.0
2017-Dec-09 21:59S 23°58' W 046°18'0 0.0
2017-Dec-09 21:29S 23°58' W 046°18'0 0.0
2017-Dec-09 20:56S 23°58' W 046°18'0 0.0
2017-Dec-09 20:29S 23°58' W 046°18'0 0.0
2017-Dec-09 19:59S 23°58' W 046°18'0 0.0
2017-Dec-09 19:29S 23°58' W 046°18'0 0.0
2017-Dec-09 18:59S 23°58' W 046°18'0 0.0
2017-Dec-09 18:29S 23°58' W 046°18'0 0.0
2017-Dec-09 17:59S 23°58' W 046°18'0 0.0
2017-Dec-09 17:29S 23°58' W 046°18'0 0.0
2017-Dec-09 16:47S 23°58' W 046°18'0 0.0
2017-Dec-09 16:29S 23°58' W 046°18'0 1.0
2017-Dec-09 16:00S 23°58' W 046°18'3 6.4
2017-Dec-09 15:30S 24°00' W 046°20'4 7.7
2017-Dec-09 15:00S 24°04' W 046°22'4 8.7
2017-Dec-09 14:30S 24°08' W 046°21'3 6.6
2017-Dec-09 14:00S 24°11' W 046°19'0 0.5
2017-Dec-09 13:29S 24°10' W 046°19'0 0.0
2017-Dec-09 12:56S 24°10' W 046°19'0 0.0
2017-Dec-09 12:26S 24°10' W 046°19'0 0.0
2017-Dec-09 11:56S 24°10' W 046°19'0 0.0
2017-Dec-09 11:29S 24°10' W 046°19'0 0.0
2017-Dec-09 10:47S 24°10' W 046°19'0 0.0
2017-Dec-09 10:26S 24°10' W 046°19'0 0.0
2017-Dec-09 09:56S 24°10' W 046°19'0 0.0
2017-Dec-09 09:26S 24°10' W 046°19'0 0.0
2017-Dec-09 08:56S 24°10' W 046°19'0 0.0
2017-Dec-09 08:29S 24°10' W 046°19'0 0.0
2017-Dec-09 07:53S 24°10' W 046°19'0 0.0
2017-Dec-09 07:26S 24°10' W 046°19'0 0.0
2017-Dec-09 06:53S 24°10' W 046°19'0 0.0
2017-Dec-09 06:29S 24°10' W 046°19'0 0.0
2017-Dec-09 05:56S 24°10' W 046°19'0 0.0
2017-Dec-09 05:29S 24°10' W 046°19'0 0.0
2017-Dec-09 04:59S 24°10' W 046°19'0 0.0
2017-Dec-09 04:26S 24°10' W 046°19'0 0.0
2017-Dec-09 03:59S 24°10' W 046°19'0 0.0
2017-Dec-09 03:26S 24°10' W 046°19'0 0.0
2017-Dec-09 02:56S 24°10' W 046°19'0 0.0
2017-Dec-09 02:20S 24°10' W 046°19'0 0.0
2017-Dec-09 01:59S 24°10' W 046°19'0 0.0
2017-Dec-09 01:29S 24°10' W 046°19'0 0.0
2017-Dec-09 00:56S 24°10' W 046°19'0 0.0
2017-Dec-09 00:29S 24°10' W 046°19'0 0.0
2017-Dec-08 23:56S 24°10' W 046°19'0 0.0
2017-Dec-08 23:26S 24°10' W 046°19'0 0.0
2017-Dec-08 22:56S 24°10' W 046°19'0 0.0
2017-Dec-08 22:26S 24°10' W 046°19'0 0.1
2017-Dec-08 21:56S 24°10' W 046°19'0 0.0
2017-Dec-08 21:23S 24°10' W 046°19'0 0.1
2017-Dec-08 20:38S 24°10' W 046°19'0 0.1
2017-Dec-08 20:29S 24°10' W 046°19'0 0.1
2017-Dec-08 19:58S 24°10' W 046°19'3 5.8
2017-Dec-08 19:30S 24°12' W 046°21'714.6
2017-Dec-08 19:00S 24°19' W 046°24'815.6
2017-Dec-08 18:30S 24°25' W 046°29'815.6
2017-Dec-08 18:00S 24°31' W 046°34'815.6
2017-Dec-08 17:30S 24°37' W 046°39'815.8
2017-Dec-08 17:00S 24°43' W 046°45'915.8
2017-Dec-08 16:28S 24°49' W 046°52'1315.6
2017-Dec-08 15:37S 24°58' W 047°03'215.6
2017-Dec-08 15:30S 24°59' W 047°04'  

Dump ship's entire track history